createdAt,value
2018-11-22T00:00:37.624Z,620.74
2018-11-22T00:01:37.605Z,620.98
2018-11-22T00:02:37.583Z,620.98
2018-11-22T00:03:37.615Z,620.27
2018-11-22T00:04:37.724Z,620.66
2018-11-22T00:05:37.599Z,619.76
2018-11-22T00:06:37.610Z,619.5
2018-11-22T00:07:37.602Z,619.23
2018-11-22T00:08:37.648Z,618.1
2018-11-22T00:09:37.622Z,617.03
2018-11-22T00:10:37.641Z,616.81
2018-11-22T00:11:37.630Z,616.32
2018-11-22T00:12:37.611Z,615.72
2018-11-22T00:13:37.646Z,614.5
2018-11-22T00:14:37.615Z,614.14
2018-11-22T00:15:37.625Z,613.06
2018-11-22T00:16:37.665Z,612.84
2018-11-22T00:17:37.637Z,612.1
2018-11-22T00:18:37.646Z,612.1
2018-11-22T00:19:37.652Z,610.95
2018-11-22T00:20:37.658Z,610.98
2018-11-22T00:21:37.636Z,609.69
2018-11-22T00:22:37.642Z,609.54
2018-11-22T00:23:37.688Z,609.68
2018-11-22T00:24:37.672Z,608.62
2018-11-22T00:25:37.692Z,608.27
2018-11-22T00:26:37.629Z,608.12
2018-11-22T00:34:40.034Z,607.12
2018-11-22T00:35:40.042Z,606.93
2018-11-22T00:36:40.031Z,606.99
2018-11-22T00:37:40.055Z,607.2
2018-11-22T00:38:40.032Z,606.78
2018-11-22T00:39:40.035Z,607.35
2018-11-22T00:40:40.043Z,607.08
2018-11-22T00:41:40.017Z,607.05
2018-11-22T00:42:40.055Z,607.03
2018-11-22T00:43:40.030Z,606.9
2018-11-22T00:44:40.036Z,606.19
2018-11-22T00:45:40.073Z,606.4
2018-11-22T00:46:40.025Z,606.41
2018-11-22T00:47:40.057Z,606.56
2018-11-22T00:48:40.063Z,606.05
2018-11-22T00:49:40.206Z,605.66
2018-11-22T00:50:40.048Z,605.3
2018-11-22T00:51:40.041Z,605.68
2018-11-22T00:52:40.038Z,605.13
2018-11-22T00:53:40.056Z,605.26
2018-11-22T00:54:40.058Z,605.33
2018-11-22T00:55:40.069Z,605.67
2018-11-22T00:56:40.081Z,605.84
2018-11-22T00:57:40.082Z,605.07
2018-11-22T00:58:40.084Z,605.65
2018-11-22T00:59:40.137Z,605.69
2018-11-22T01:00:40.074Z,606.25
2018-11-22T01:01:40.044Z,606.89
2018-11-22T01:02:40.054Z,606.86
2018-11-22T01:03:40.067Z,606.8
2018-11-22T01:04:40.065Z,606.89
2018-11-22T01:05:40.052Z,606.99
2018-11-22T01:06:40.079Z,606.63
2018-11-22T01:07:40.069Z,607.2
2018-11-22T01:08:40.050Z,607.18
2018-11-22T01:09:40.098Z,606.8
2018-11-22T01:10:40.103Z,606.79
2018-11-22T01:11:40.075Z,607.03
2018-11-22T01:12:40.082Z,606.18
2018-11-22T01:17:10.428Z,605.18
2018-11-22T01:18:10.389Z,605.18
2018-11-22T01:19:10.396Z,604.28
2018-11-22T01:20:10.439Z,604.24
2018-11-22T01:21:10.385Z,604.01
2018-11-22T01:22:10.427Z,603.66
2018-11-22T01:23:10.392Z,603.54
2018-11-22T01:24:10.379Z,602.6
2018-11-22T01:25:10.398Z,603.18
2018-11-22T01:26:10.374Z,603.46
2018-11-22T01:27:10.420Z,602.97
2018-11-22T01:28:10.403Z,603.12
2018-11-22T01:29:10.403Z,603.15
2018-11-22T01:30:10.399Z,603.32
2018-11-22T01:31:10.405Z,603.48
2018-11-22T01:32:10.413Z,603.68
2018-11-22T01:33:10.406Z,603.27
2018-11-22T01:34:10.393Z,602.91
2018-11-22T01:35:10.400Z,603.62
2018-11-22T01:36:10.411Z,604.16
2018-11-22T01:37:10.391Z,604.14
2018-11-22T01:38:10.420Z,604.7
2018-11-22T01:39:10.396Z,604.85
2018-11-22T01:40:10.433Z,604.94
2018-11-22T01:41:10.410Z,605.08
2018-11-22T01:42:10.430Z,605.43
2018-11-22T01:43:10.421Z,606.17
2018-11-22T01:44:10.428Z,605.44
2018-11-22T01:45:10.447Z,606.18
2018-11-22T01:46:10.440Z,606.53
2018-11-22T01:47:10.423Z,606.19
2018-11-22T01:48:10.519Z,606
2018-11-22T01:49:10.422Z,606.17
2018-11-22T01:50:10.429Z,606.2
2018-11-22T01:51:10.436Z,606.58
2018-11-22T01:52:10.425Z,606.5
2018-11-22T01:53:10.417Z,606.38
2018-11-22T01:54:10.459Z,606.94
2018-11-22T01:55:10.430Z,606.98
2018-11-22T01:56:10.420Z,606.92
2018-11-22T01:57:10.417Z,606.76
2018-11-22T01:58:10.433Z,607.89
2018-11-22T01:59:10.474Z,607.49
2018-11-22T02:00:10.463Z,607.7
2018-11-22T02:01:10.441Z,608.21
2018-11-22T02:02:10.549Z,608.03
2018-11-22T02:03:10.441Z,607.92
2018-11-22T02:04:10.422Z,608.77
2018-11-22T02:05:10.475Z,608.56
2018-11-22T02:06:10.472Z,609.89
2018-11-22T02:07:10.438Z,609.6
2018-11-22T02:08:10.485Z,609.65
2018-11-22T02:09:10.456Z,609.08
2018-11-22T02:10:10.458Z,609.62
2018-11-22T02:11:10.476Z,610.23
2018-11-22T02:12:10.469Z,610.03
2018-11-22T02:13:10.480Z,609.67
2018-11-22T02:14:10.462Z,609.72
2018-11-22T02:15:10.457Z,610.5
2018-11-22T02:16:10.443Z,609.94
2018-11-22T02:17:10.473Z,609.96
2018-11-22T02:28:14.031Z,607.42
2018-11-22T02:29:14.015Z,607.53
2018-11-22T02:30:14.117Z,607.15
2018-11-22T02:31:14.037Z,606.74
2018-11-22T02:32:14.361Z,606.57
2018-11-22T02:33:14.060Z,607.18
2018-11-22T02:34:14.034Z,605.9
2018-11-22T02:35:14.042Z,605.35
2018-11-22T02:36:14.018Z,604.97
2018-11-22T02:37:14.059Z,604.29
2018-11-22T02:38:14.062Z,603.61
2018-11-22T02:39:14.038Z,602.15
2018-11-22T02:40:14.085Z,601.43
2018-11-22T02:41:14.024Z,599.91
2018-11-22T02:42:14.031Z,599.11
2018-11-22T02:43:14.053Z,598.39
2018-11-22T02:44:14.062Z,598.22
2018-11-22T02:45:14.068Z,597.3
2018-11-22T02:46:14.033Z,597.33
2018-11-22T02:47:14.055Z,597.02
2018-11-22T02:48:14.057Z,597.12
2018-11-22T02:49:14.064Z,596.35
2018-11-22T02:50:14.039Z,597.15
2018-11-22T02:51:14.077Z,596.98
2018-11-22T02:52:14.088Z,596.94
2018-11-22T02:53:14.059Z,596.48
2018-11-22T02:54:14.065Z,595.87
2018-11-22T02:55:14.074Z,597.03
2018-11-22T02:56:14.068Z,596.64
2018-11-22T02:57:14.046Z,597.17
2018-11-22T02:58:14.091Z,596.61
2018-11-22T02:59:14.067Z,597.44
2018-11-22T03:00:14.118Z,597.23
2018-11-22T03:01:14.071Z,597.57
2018-11-22T03:02:14.387Z,597.24
2018-11-22T03:03:14.085Z,597.28
2018-11-22T03:04:14.094Z,597.26
2018-11-22T03:05:14.098Z,597.37
2018-11-22T03:06:14.085Z,597.97
2018-11-22T03:07:14.069Z,596.83
2018-11-22T03:08:14.087Z,596.8
2018-11-22T03:09:14.093Z,596.82
2018-11-22T03:10:14.102Z,596.62
2018-11-22T03:11:14.107Z,596.31
2018-11-22T03:12:14.119Z,596.1
2018-11-22T03:13:14.089Z,595.68
2018-11-22T03:14:14.095Z,595.88
2018-11-22T03:15:14.108Z,595.91
2018-11-22T03:16:14.110Z,595.55
2018-11-22T03:17:14.082Z,595.13
2018-11-22T03:18:14.128Z,595.69
2018-11-22T03:19:14.130Z,594.97
2018-11-22T03:20:14.138Z,594.94
2018-11-22T03:21:14.105Z,595.12
2018-11-22T03:22:14.111Z,595.19
2018-11-22T03:23:14.116Z,594.97
2018-11-22T03:24:14.128Z,594.59
2018-11-22T03:25:14.132Z,594.78
2018-11-22T03:26:14.105Z,594.18
2018-11-22T03:27:14.116Z,594.62
2018-11-22T03:28:14.118Z,593.48
2018-11-22T03:29:14.126Z,593.64
2018-11-22T03:30:14.131Z,594.02
2018-11-22T03:31:14.138Z,593.61
2018-11-22T03:32:14.156Z,593.47
2018-11-22T03:33:14.130Z,594
2018-11-22T03:34:14.126Z,593.57
2018-11-22T03:35:14.139Z,593.62
2018-11-22T03:36:14.140Z,593.74
2018-11-22T03:37:14.152Z,592.82
2018-11-22T03:38:14.153Z,593.01
2018-11-22T03:39:14.110Z,592.65
2018-11-22T03:40:14.105Z,592.81
2018-11-22T03:41:14.120Z,592.38
2018-11-22T03:42:14.144Z,592.81
2018-11-22T03:43:14.148Z,593.34
2018-11-22T03:44:14.134Z,592.57
2018-11-22T03:45:14.162Z,592.84
2018-11-22T03:46:14.114Z,592.27
2018-11-22T03:47:14.149Z,591.9
2018-11-22T03:48:14.149Z,591.94
2018-11-22T03:49:14.157Z,592
2018-11-22T03:50:14.238Z,592.67
2018-11-22T03:51:14.137Z,592.51
2018-11-22T03:52:14.173Z,593.08
2018-11-22T03:53:14.135Z,593.69
2018-11-22T03:58:33.778Z,593.68
2018-11-22T03:58:45.869Z,595.52
2018-11-22T03:59:45.861Z,595.91
2018-11-22T04:00:45.837Z,596.38
2018-11-22T04:01:45.821Z,596.5
2018-11-22T04:02:45.818Z,596.31
2018-11-22T04:03:45.857Z,596.15
2018-11-22T04:04:45.875Z,596.83
2018-11-22T04:05:45.818Z,596.36
2018-11-22T04:06:45.835Z,596.53
2018-11-22T04:07:45.850Z,595.75
2018-11-22T04:08:45.853Z,595.7
2018-11-22T04:09:45.857Z,595.22
2018-11-22T04:10:45.842Z,595.37
2018-11-22T04:11:45.847Z,595.37
2018-11-22T04:12:45.880Z,595.22
2018-11-22T04:13:45.880Z,595.74
2018-11-22T04:18:15.254Z,593.36
2018-11-22T04:19:15.279Z,593.06
2018-11-22T04:20:15.255Z,592.28
2018-11-22T04:21:15.254Z,592.37
2018-11-22T04:22:15.249Z,591.78
2018-11-22T04:23:15.250Z,592.76
2018-11-22T04:24:15.243Z,592.39
2018-11-22T04:25:15.281Z,592.6
2018-11-22T04:26:16.923Z,592.7
2018-11-22T04:27:15.294Z,593.55
2018-11-22T04:28:15.264Z,593.92
2018-11-22T04:29:15.315Z,593.4
2018-11-22T04:30:15.275Z,594.87
2018-11-22T04:31:15.281Z,595.06
2018-11-22T04:32:15.317Z,595.62
2018-11-22T04:33:15.296Z,595.35
2018-11-22T04:34:15.303Z,596.1
2018-11-22T04:35:15.307Z,596.04
2018-11-22T04:36:15.273Z,596.24
2018-11-22T04:37:15.267Z,596.68
2018-11-22T04:38:15.303Z,596.91
2018-11-22T04:39:15.284Z,597.64
2018-11-22T04:40:15.310Z,597.9
2018-11-22T04:41:15.316Z,597.36
2018-11-22T04:42:15.292Z,597.22
2018-11-22T04:43:15.296Z,596.63
2018-11-22T04:44:15.305Z,597.31
2018-11-22T04:45:15.312Z,597.53
2018-11-22T04:46:15.290Z,597.28
2018-11-22T04:47:15.324Z,597.34
2018-11-22T04:48:15.336Z,596.83
2018-11-22T04:49:15.297Z,596.38
2018-11-22T04:50:15.310Z,596.17
2018-11-22T04:51:15.298Z,596.22
2018-11-22T04:52:15.318Z,595.43
2018-11-22T04:53:15.298Z,595.67
2018-11-22T04:54:15.334Z,596.47
2018-11-22T04:55:15.342Z,595.84
2018-11-22T04:56:15.357Z,596.95
2018-11-22T04:57:15.300Z,596.69
2018-11-22T04:58:15.327Z,597.07
2018-11-22T04:59:15.346Z,596.94
2018-11-22T05:00:15.345Z,597.68
2018-11-22T05:01:15.348Z,596.91
2018-11-22T05:02:15.321Z,597.03
2018-11-22T05:03:15.333Z,596.98
2018-11-22T05:04:15.334Z,597.4
2018-11-22T05:05:15.342Z,596.88
2018-11-22T05:06:15.311Z,595.76
2018-11-22T05:07:15.360Z,595.02
2018-11-22T05:08:15.328Z,593.77
2018-11-22T05:09:15.367Z,593.96
2018-11-22T05:10:15.374Z,593.79
2018-11-22T05:11:15.347Z,592.78
2018-11-22T05:12:15.349Z,593.36
2018-11-22T05:13:15.369Z,593.71
2018-11-22T05:14:15.353Z,594.13
2018-11-22T05:15:15.342Z,593.91
2018-11-22T05:16:15.342Z,594.52
2018-11-22T05:17:15.342Z,593.91
2018-11-22T05:18:15.358Z,594.98
2018-11-22T05:19:15.365Z,594.03
2018-11-22T05:20:15.339Z,593.91
2018-11-22T05:21:15.382Z,593.94
2018-11-22T05:22:15.320Z,594.1
2018-11-22T05:23:15.683Z,593.82
2018-11-22T05:24:15.364Z,593.29
2018-11-22T05:25:15.374Z,593.79
2018-11-22T05:26:15.377Z,593.66
2018-11-22T05:27:15.386Z,593.51
2018-11-22T05:28:15.391Z,593.81
2018-11-22T05:29:15.370Z,593.78
2018-11-22T05:30:15.344Z,593.28
2018-11-22T05:31:15.370Z,593.42
2018-11-22T05:32:15.418Z,593.84
2018-11-22T05:33:15.389Z,593.94
2018-11-22T05:34:15.392Z,593.75
2018-11-22T05:35:15.386Z,593.45
2018-11-22T05:36:15.374Z,593.4
2018-11-22T05:37:15.380Z,592.97
2018-11-22T05:38:15.388Z,594
2018-11-22T05:39:15.395Z,593.19
2018-11-22T05:40:15.396Z,593.34
2018-11-22T05:41:15.388Z,592.98
2018-11-22T05:42:15.379Z,593.61
2018-11-22T05:43:15.389Z,593.26
2018-11-22T05:49:55.426Z,594.22
2018-11-22T05:50:55.430Z,594.22
2018-11-22T05:51:55.409Z,594.68
2018-11-22T05:53:12.097Z,593.74
2018-11-22T05:54:12.071Z,595.12
2018-11-22T05:55:12.091Z,594.5
2018-11-22T05:56:12.096Z,595.1
2018-11-22T05:57:12.102Z,594.9
2018-11-22T05:58:12.074Z,595.04
2018-11-22T05:59:12.074Z,595.23
2018-11-22T06:00:12.091Z,595.25
2018-11-22T06:01:16.239Z,594.97
2018-11-22T06:02:12.094Z,595.53
2018-11-22T06:03:12.101Z,596
2018-11-22T06:04:12.077Z,596.31
2018-11-22T06:05:12.084Z,596.69
2018-11-22T06:06:12.091Z,597.5
2018-11-22T06:07:12.098Z,597.35
2018-11-22T06:08:12.141Z,597.61
2018-11-22T06:09:12.110Z,597.45
2018-11-22T06:10:12.089Z,596.82
2018-11-22T06:11:12.094Z,598.28
2018-11-22T06:12:12.097Z,597.34
2018-11-22T06:13:12.115Z,597.7
2018-11-22T06:14:12.109Z,597.54
2018-11-22T06:15:12.086Z,597.43
2018-11-22T06:16:12.090Z,596.45
2018-11-22T06:17:12.102Z,596.72
2018-11-22T06:18:12.866Z,597.22
2018-11-22T06:19:12.093Z,597.82
2018-11-22T06:20:12.101Z,598
2018-11-22T06:21:12.123Z,597.47
2018-11-22T06:22:12.114Z,597.55
2018-11-22T06:23:12.130Z,598.06
2018-11-22T06:24:12.106Z,598.3
2018-11-22T06:25:12.112Z,598.48
2018-11-22T06:26:12.107Z,598.08
2018-11-22T06:27:12.132Z,598.82
2018-11-22T06:28:12.116Z,598.61
2018-11-22T06:29:12.129Z,598.86
2018-11-22T06:30:12.114Z,598.61
2018-11-22T06:31:12.123Z,598.55
2018-11-22T06:32:12.127Z,599.05
2018-11-22T06:33:12.134Z,599.06
2018-11-22T06:34:12.129Z,599.4
2018-11-22T06:35:12.187Z,599.86
2018-11-22T06:36:12.123Z,599.81
2018-11-22T06:37:12.121Z,599.78
2018-11-22T06:38:12.136Z,600.06
2018-11-22T06:39:12.138Z,600.02
2018-11-22T06:40:12.150Z,599.28
2018-11-22T06:41:12.149Z,599.98
2018-11-22T06:42:12.154Z,600.08
2018-11-22T06:43:12.132Z,600.07
2018-11-22T06:44:12.134Z,601.44
2018-11-22T06:45:12.112Z,601.26
2018-11-22T06:46:12.116Z,602.18
2018-11-22T06:47:12.152Z,602.52
2018-11-22T06:48:12.149Z,603.06
2018-11-22T06:49:12.142Z,603.63
2018-11-22T06:50:12.133Z,603.44
2018-11-22T06:51:12.119Z,604.75
2018-11-22T06:52:12.130Z,604.55
2018-11-22T06:53:12.143Z,605.07
2018-11-22T06:54:12.133Z,605.11
2018-11-22T06:55:12.143Z,605.84
2018-11-22T06:56:12.183Z,606.83
2018-11-22T07:00:41.833Z,607.08
2018-11-22T07:01:41.767Z,606.98
2018-11-22T07:02:41.791Z,606.82
2018-11-22T07:03:41.812Z,606.95
2018-11-22T07:04:41.830Z,607.35
2018-11-22T07:05:41.843Z,607.23
2018-11-22T07:06:41.842Z,607.79
2018-11-22T07:07:41.856Z,607.58
2018-11-22T07:08:41.833Z,606.83
2018-11-22T07:09:41.827Z,606.79
2018-11-22T07:10:41.834Z,606.82
2018-11-22T07:11:41.872Z,606.46
2018-11-22T07:12:41.853Z,605.34
2018-11-22T07:13:41.823Z,604.98
2018-11-22T07:14:41.824Z,605.18
2018-11-22T07:15:41.832Z,605.19
2018-11-22T07:16:41.838Z,604.63
2018-11-22T07:17:41.850Z,605.15
2018-11-22T07:18:41.850Z,604.95
2018-11-22T07:19:41.858Z,604.58
2018-11-22T07:20:41.871Z,604.41
2018-11-22T07:21:41.848Z,604.23
2018-11-22T07:24:01.853Z,604.38
2018-11-22T07:25:01.425Z,604.2
2018-11-22T07:26:01.426Z,603.72
2018-11-22T07:27:01.395Z,603.9
2018-11-22T07:28:01.402Z,604.35
2018-11-22T07:29:01.409Z,603.75
2018-11-22T07:30:01.414Z,603.21
2018-11-22T07:31:01.419Z,603.25
2018-11-22T07:32:01.425Z,602.86
2018-11-22T07:33:01.433Z,601.61
2018-11-22T07:34:01.429Z,601.45
2018-11-22T07:35:01.413Z,602.61
2018-11-22T07:36:01.418Z,602.18
2018-11-22T07:37:02.965Z,602.05
2018-11-22T07:38:01.435Z,602.57
2018-11-22T07:39:03.182Z,602.64
2018-11-22T07:40:01.416Z,603
2018-11-22T07:41:02.045Z,602.95
2018-11-22T07:42:01.429Z,603.8
2018-11-22T07:43:01.526Z,603.57
2018-11-22T07:44:01.476Z,604.38
2018-11-22T07:45:01.448Z,604.69
2018-11-22T07:46:01.453Z,604.63
2018-11-22T07:47:01.459Z,605.52
2018-11-22T07:48:01.425Z,607.01
2018-11-22T07:49:18.125Z,607.55
2018-11-22T07:50:18.100Z,607.93
2018-11-22T07:51:18.107Z,608.82
2018-11-22T07:52:18.113Z,609.53
2018-11-22T07:54:37.653Z,609.59
2018-11-22T07:55:37.659Z,609.53
2018-11-22T07:56:37.668Z,609.79
2018-11-22T07:57:37.635Z,610.52
2018-11-22T07:58:37.640Z,610.82
2018-11-22T07:59:37.651Z,612.11
2018-11-22T08:00:37.706Z,612.87
2018-11-22T08:01:37.664Z,612.67
2018-11-22T08:02:37.672Z,613.11
2018-11-22T08:03:37.679Z,613.28
2018-11-22T08:04:37.650Z,613.78
2018-11-22T08:05:37.693Z,614.24
2018-11-22T08:06:37.662Z,614.94
2018-11-22T08:07:37.672Z,616.23
2018-11-22T08:08:37.691Z,616.74
2018-11-22T08:09:37.685Z,617.32
2018-11-22T08:10:37.656Z,618.78
2018-11-22T08:11:37.667Z,619.64
2018-11-22T08:12:37.685Z,619.96
2018-11-22T08:13:37.678Z,621.1
2018-11-22T08:14:37.723Z,621.41
2018-11-22T08:15:37.691Z,621.8
2018-11-22T08:16:37.700Z,621.64
2018-11-22T08:17:37.705Z,621.78
2018-11-22T08:18:37.670Z,622.38
2018-11-22T08:19:37.680Z,622.56
2018-11-22T08:20:37.692Z,622.4
2018-11-22T08:21:38.259Z,623.12
2018-11-22T08:22:37.699Z,623.67
2018-11-22T08:23:38.288Z,624.01
2018-11-22T08:24:37.680Z,623.87
2018-11-22T08:25:37.688Z,623.34
2018-11-22T08:26:37.696Z,623.12
2018-11-22T08:27:37.703Z,623.11
2018-11-22T08:28:37.740Z,623.09
2018-11-22T08:29:37.716Z,624.07
2018-11-22T08:30:37.697Z,624.23
2018-11-22T08:31:37.698Z,624.98
2018-11-22T08:32:37.704Z,625.3
2018-11-22T08:33:37.715Z,625.83
2018-11-22T08:34:37.716Z,626.82
2018-11-22T08:35:37.724Z,627.71
2018-11-22T08:36:37.736Z,629.26
2018-11-22T08:37:37.737Z,630.35
2018-11-22T08:38:37.705Z,631.78
2018-11-22T08:39:37.712Z,633.06
2018-11-22T08:40:37.722Z,634.5
2018-11-22T08:41:37.734Z,635.52
2018-11-22T08:42:37.729Z,636.45
2018-11-22T08:43:37.711Z,636.42
2018-11-22T08:44:37.714Z,637.88
2018-11-22T08:45:37.718Z,639.62
2018-11-22T08:46:37.726Z,639.75
2018-11-22T08:47:37.737Z,641.32
2018-11-22T08:48:37.740Z,642.2
2018-11-22T08:49:37.715Z,644.02
2018-11-22T08:50:37.723Z,644.85
2018-11-22T08:51:37.736Z,645.56
2018-11-22T08:52:37.800Z,646.97
2018-11-22T08:53:37.790Z,647.84
2018-11-22T08:54:37.752Z,648.41
2018-11-22T08:55:37.756Z,649.06
2018-11-22T08:56:37.775Z,649.71
2018-11-22T08:57:37.735Z,651.03
2018-11-22T08:58:37.745Z,651.1
2018-11-22T08:59:37.743Z,651.22
2018-11-22T09:00:37.924Z,651.41
2018-11-22T09:01:37.794Z,652.37
2018-11-22T09:02:37.763Z,652.15
2018-11-22T09:03:37.739Z,652.99
2018-11-22T09:04:37.744Z,653.06
2018-11-22T09:05:37.750Z,652.5
2018-11-22T09:06:37.758Z,652.66
2018-11-22T09:07:37.764Z,652.69
2018-11-22T09:08:37.744Z,652.67
2018-11-22T09:09:37.747Z,652.5
2018-11-22T09:10:37.755Z,653.64
2018-11-22T09:11:37.759Z,653.13
2018-11-22T09:12:37.767Z,653.63
2018-11-22T09:13:37.785Z,653.42
2018-11-22T09:14:38.012Z,654.07
2018-11-22T09:15:37.753Z,654.12
2018-11-22T09:16:37.763Z,655.05
2018-11-22T09:17:37.761Z,654.65
2018-11-22T09:18:37.807Z,655.35
2018-11-22T09:19:38.703Z,655.48
2018-11-22T09:20:37.781Z,655.86
2018-11-22T09:21:37.789Z,656.06
2018-11-22T09:22:37.762Z,656.21
2018-11-22T09:23:38.510Z,656.82
2018-11-22T09:24:37.779Z,656.53
2018-11-22T09:25:37.782Z,656.42
2018-11-22T09:26:37.797Z,656.39
2018-11-22T09:27:37.802Z,656.78
2018-11-22T09:28:37.812Z,656.82
2018-11-22T09:29:39.529Z,657.35
2018-11-22T09:30:37.792Z,658.28
2018-11-22T09:31:37.826Z,658.83
2018-11-22T09:32:39.179Z,659.72
2018-11-22T09:33:38.966Z,660.42
2018-11-22T09:34:37.814Z,661.29
2018-11-22T09:35:37.796Z,662.36
2018-11-22T09:36:37.789Z,662.7
2018-11-22T09:37:37.794Z,663.36
2018-11-22T09:38:37.801Z,663.71
2018-11-22T09:39:37.805Z,664.57
2018-11-22T09:40:37.812Z,664.56
2018-11-22T09:41:37.791Z,664.43
2018-11-22T09:42:37.795Z,665.33
2018-11-22T09:43:37.801Z,665.09
2018-11-22T09:44:37.809Z,666.69
2018-11-22T09:45:37.818Z,666.83
2018-11-22T09:46:37.822Z,667.7
2018-11-22T09:47:37.834Z,668.25
2018-11-22T09:48:37.823Z,669.13
2018-11-22T09:49:37.807Z,668.75
2018-11-22T09:50:37.824Z,669.29
2018-11-22T09:51:37.825Z,669.99
2018-11-22T09:52:37.828Z,670.84
2018-11-22T09:53:37.835Z,671.19
2018-11-22T09:54:37.845Z,671.98
2018-11-22T09:55:37.848Z,672.44
2018-11-22T09:56:37.822Z,672.66
2018-11-22T09:57:37.829Z,673.54
2018-11-22T09:58:37.828Z,674.26
2018-11-22T09:59:37.836Z,674.59
2018-11-22T10:06:18.020Z,679.02
2018-11-22T10:07:17.997Z,679.53
2018-11-22T10:08:18.007Z,679.91
2018-11-22T10:09:18.057Z,680.39
2018-11-22T10:10:17.979Z,680.73
2018-11-22T10:11:18.019Z,680.88
2018-11-22T10:12:18.002Z,681.89
2018-11-22T10:13:18.066Z,682.41
2018-11-22T10:14:18.007Z,683.46
2018-11-22T10:15:18.018Z,684.8
2018-11-22T10:16:18.019Z,685.27
2018-11-22T10:17:18.027Z,686.26
2018-11-22T10:18:17.992Z,687.45
2018-11-22T10:19:18.012Z,687.43
2018-11-22T10:20:18.011Z,687.62
2018-11-22T10:21:18.016Z,687.93
2018-11-22T10:22:18.026Z,687.63
2018-11-22T10:23:17.994Z,687.8
2018-11-22T10:24:18.028Z,688.79
2018-11-22T10:25:18.009Z,688.77
2018-11-22T10:26:18.021Z,689.63
2018-11-22T10:27:18.024Z,690.47
2018-11-22T10:28:18.033Z,691.35
2018-11-22T10:29:18.073Z,692.18
2018-11-22T10:30:18.078Z,693.13
2018-11-22T10:31:18.019Z,693.48
2018-11-22T10:32:18.026Z,694.11
2018-11-22T10:33:18.033Z,695.17
2018-11-22T10:34:18.035Z,695.88
2018-11-22T10:35:18.103Z,697.2
2018-11-22T10:36:18.048Z,697.79
2018-11-22T10:37:18.028Z,698.16
2018-11-22T10:38:18.149Z,698.87
2018-11-22T10:40:18.051Z,700.82
2018-11-22T10:41:18.041Z,701.82
2018-11-22T10:42:18.072Z,702.13
2018-11-22T10:43:18.029Z,701.73
2018-11-22T10:44:18.074Z,702.44
2018-11-22T10:45:18.036Z,703.06
2018-11-22T10:46:18.042Z,704.25
2018-11-22T10:47:18.054Z,708.34
2018-11-22T10:48:18.090Z,712.97
2018-11-22T10:49:18.041Z,716.25
2018-11-22T10:50:18.046Z,717.65
2018-11-22T10:51:18.050Z,718.47
2018-11-22T10:52:18.051Z,719.58
2018-11-22T10:53:18.060Z,720.42
2018-11-22T10:54:18.065Z,720.14
2018-11-22T10:55:18.072Z,720.4
2018-11-22T10:56:18.046Z,719.72
2018-11-22T10:57:18.071Z,719.09
2018-11-22T10:58:18.058Z,718.62
2018-11-22T10:59:18.064Z,717.61
2018-11-22T11:00:18.066Z,717.09
2018-11-22T11:01:18.054Z,715.62
2018-11-22T11:02:18.138Z,714.92
2018-11-22T11:03:18.089Z,714.04
2018-11-22T11:04:18.062Z,712.42
2018-11-22T11:05:18.068Z,711.1
2018-11-22T11:06:18.074Z,711.11
2018-11-22T11:07:18.081Z,710.95
2018-11-22T11:08:18.064Z,711.37
2018-11-22T11:09:18.068Z,712.19
2018-11-22T11:10:18.071Z,713.07
2018-11-22T11:11:18.058Z,713.66
2018-11-22T11:12:18.085Z,714.17
2018-11-22T11:13:18.089Z,714.62
2018-11-22T11:14:18.094Z,715.76
2018-11-22T11:15:18.145Z,716.24
2018-11-22T11:16:18.067Z,716.91
2018-11-22T11:17:18.077Z,717.5
2018-11-22T11:18:18.093Z,718.03
2018-11-22T11:19:18.092Z,718.19
2018-11-22T11:20:18.095Z,718.87
2018-11-22T11:21:18.102Z,719.31
2018-11-22T11:22:18.111Z,722.91
2018-11-22T11:23:18.093Z,730.03
2018-11-22T11:24:18.101Z,736.56
2018-11-22T11:25:18.096Z,742.27
2018-11-22T11:26:18.174Z,747.15
2018-11-22T11:27:18.109Z,749.96
2018-11-22T11:28:18.085Z,751.17
2018-11-22T11:29:18.091Z,752.65
2018-11-22T11:30:18.098Z,752.23
2018-11-22T11:31:18.104Z,751.98
2018-11-22T11:32:18.111Z,750.98
2018-11-22T11:33:18.078Z,750.45
2018-11-22T11:34:18.084Z,748.87
2018-11-22T11:35:18.131Z,747.88
2018-11-22T11:36:18.103Z,746.94
2018-11-22T11:37:18.125Z,746.34
2018-11-22T11:38:18.096Z,746.01
2018-11-22T11:39:18.125Z,745.84
2018-11-22T11:40:18.106Z,745.96
2018-11-22T11:41:18.099Z,746.31
2018-11-22T11:42:18.105Z,746.49
2018-11-22T11:43:18.112Z,747.14
2018-11-22T11:44:18.124Z,748.2
2018-11-22T11:45:18.134Z,748.94
2018-11-22T11:46:18.102Z,749.98
2018-11-22T11:47:18.108Z,750.15
2018-11-22T11:48:18.114Z,750.68
2018-11-22T11:49:18.121Z,750.15
2018-11-22T11:50:18.191Z,749.43
2018-11-22T11:51:18.166Z,748.52
2018-11-22T11:52:18.102Z,747.58
2018-11-22T11:53:19.149Z,748.07
2018-11-22T11:54:18.115Z,748.32
2018-11-22T11:55:18.123Z,748.32
2018-11-22T11:56:18.217Z,748.17
2018-11-22T11:57:18.134Z,747.65
2018-11-22T11:58:18.297Z,747.2
2018-11-22T11:59:18.116Z,747.03
2018-11-22T12:00:34.783Z,746.89
2018-11-22T12:01:34.754Z,747.59
2018-11-22T12:02:34.761Z,747.13
2018-11-22T12:03:34.762Z,747.47
2018-11-22T12:04:34.741Z,746.87
2018-11-22T12:05:34.747Z,746.58
2018-11-22T12:06:34.724Z,746.42
2018-11-22T12:07:34.790Z,745.74
2018-11-22T12:08:34.764Z,745.22
2018-11-22T12:09:34.788Z,744.94
2018-11-22T12:10:34.749Z,744.71
2018-11-22T12:11:34.755Z,744.68
2018-11-22T12:12:34.775Z,743.97
2018-11-22T12:16:46.626Z,742.41
2018-11-22T12:17:46.634Z,742.57
2018-11-22T12:18:46.608Z,743.39
2018-11-22T12:19:46.613Z,743.66
2018-11-22T12:20:46.620Z,743.82
2018-11-22T12:21:46.626Z,744.51
2018-11-22T12:22:46.606Z,744.8
2018-11-22T12:23:46.642Z,745.56
2018-11-22T12:24:46.624Z,745.69
2018-11-22T12:25:46.691Z,745.73
2018-11-22T12:26:46.630Z,745.99
2018-11-22T12:27:46.700Z,745.23
2018-11-22T12:28:46.645Z,744.74
2018-11-22T12:29:46.650Z,744.47
2018-11-22T12:30:46.658Z,744.34
2018-11-22T12:31:46.631Z,743.87
2018-11-22T12:32:46.638Z,743.57
2018-11-22T12:33:46.637Z,743.32
2018-11-22T12:34:46.644Z,742.66
2018-11-22T12:35:46.658Z,742.2
2018-11-22T12:36:46.699Z,741.64
2018-11-22T12:37:46.680Z,741.04
2018-11-22T12:38:46.639Z,741.14
2018-11-22T12:39:46.645Z,741.18
2018-11-22T12:40:46.654Z,741.18
2018-11-22T12:41:46.658Z,740.03
2018-11-22T12:42:46.634Z,739.92
2018-11-22T12:43:46.640Z,740.04
2018-11-22T12:44:46.645Z,739.7
2018-11-22T12:45:46.655Z,740.14
2018-11-22T12:46:46.665Z,740.1
2018-11-22T12:47:46.629Z,740.37
2018-11-22T12:48:46.632Z,741.08
2018-11-22T12:49:46.644Z,741.38
2018-11-22T12:50:46.654Z,741.55
2018-11-22T12:51:46.652Z,741.39
2018-11-22T12:52:46.664Z,740.79
2018-11-22T12:53:46.666Z,740.93
2018-11-22T12:54:46.673Z,740.12
2018-11-22T12:55:46.646Z,739.77
2018-11-22T12:56:46.654Z,739.96
2018-11-22T12:57:46.663Z,739.5
2018-11-22T12:58:46.668Z,739.17
2018-11-22T12:59:46.673Z,737.85
2018-11-22T13:00:46.679Z,737.21
2018-11-22T13:01:46.656Z,736.92
2018-11-22T13:02:46.661Z,736.73
2018-11-22T13:03:46.668Z,736.76
2018-11-22T13:04:46.676Z,737.04
2018-11-22T13:05:46.682Z,736.62
2018-11-22T13:06:46.651Z,736
2018-11-22T13:07:46.695Z,736.14
2018-11-22T13:08:46.703Z,736.04
2018-11-22T13:09:46.668Z,735.99
2018-11-22T13:10:46.677Z,737.4
2018-11-22T13:11:47.669Z,737.25
2018-11-22T13:12:46.693Z,738.51
2018-11-22T13:13:46.664Z,738.16
2018-11-22T13:14:46.716Z,738.82
2018-11-22T13:15:46.677Z,739.43
2018-11-22T13:16:46.683Z,739.44
2018-11-22T13:17:46.693Z,740.08
2018-11-22T13:18:46.696Z,739.9
2018-11-22T13:19:46.672Z,740.09
2018-11-22T13:20:46.689Z,740.11
2018-11-22T13:21:46.687Z,740.2